sensor_id;sensor_type;location;lat;lon;timestamp;P1;durP1;ratioP1;P2;durP2;ratioP2
12267;SDS011;6196;48.398;11.736;2023-02-15T00:00:01;34.70;;;17.63;;
12267;SDS011;6196;48.398;11.736;2023-02-15T00:02:34;32.77;;;17.13;;
12267;SDS011;6196;48.398;11.736;2023-02-15T00:05:01;35.40;;;18.00;;
12267;SDS011;6196;48.398;11.736;2023-02-15T00:07:28;60.67;;;19.10;;
12267;SDS011;6196;48.398;11.736;2023-02-15T00:09:54;31.03;;;16.97;;
12267;SDS011;6196;48.398;11.736;2023-02-15T00:12:21;53.63;;;18.70;;
12267;SDS011;6196;48.398;11.736;2023-02-15T00:14:48;27.00;;;16.70;;
12267;SDS011;6196;48.398;11.736;2023-02-15T00:17:15;33.43;;;17.37;;
12267;SDS011;6196;48.398;11.736;2023-02-15T00:19:42;45.10;;;18.10;;
12267;SDS011;6196;48.398;11.736;2023-02-15T00:22:09;52.13;;;17.83;;
12267;SDS011;6196;48.398;11.736;2023-02-15T00:24:36;39.43;;;17.90;;
12267;SDS011;6196;48.398;11.736;2023-02-15T00:27:02;28.77;;;17.70;;
12267;SDS011;6196;48.398;11.736;2023-02-15T00:29:29;41.77;;;17.37;;
12267;SDS011;6196;48.398;11.736;2023-02-15T00:31:56;52.23;;;18.00;;
12267;SDS011;6196;48.398;11.736;2023-02-15T00:34:24;68.47;;;19.87;;
12267;SDS011;6196;48.398;11.736;2023-02-15T00:36:53;55.90;;;19.40;;
12267;SDS011;6196;48.398;11.736;2023-02-15T00:39:20;77.10;;;19.83;;
12267;SDS011;6196;48.398;11.736;2023-02-15T00:41:47;44.03;;;17.97;;
12267;SDS011;6196;48.398;11.736;2023-02-15T00:44:14;40.90;;;17.70;;
12267;SDS011;6196;48.398;11.736;2023-02-15T00:46:42;31.43;;;16.70;;
12267;SDS011;6196;48.398;11.736;2023-02-15T00:49:09;41.70;;;18.67;;
12267;SDS011;6196;48.398;11.736;2023-02-15T00:51:36;36.50;;;17.37;;
12267;SDS011;6196;48.398;11.736;2023-02-15T00:54:03;30.07;;;16.93;;
12267;SDS011;6196;48.398;11.736;2023-02-15T00:56:30;59.77;;;17.50;;
12267;SDS011;6196;48.398;11.736;2023-02-15T00:58:57;66.60;;;19.13;;
12267;SDS011;6196;48.398;11.736;2023-02-15T01:01:24;53.73;;;17.67;;
12267;SDS011;6196;48.398;11.736;2023-02-15T01:03:52;45.37;;;17.20;;
12267;SDS011;6196;48.398;11.736;2023-02-15T01:06:19;85.40;;;21.07;;
12267;SDS011;6196;48.398;11.736;2023-02-15T01:08:46;122.33;;;23.13;;
12267;SDS011;6196;48.398;11.736;2023-02-15T01:11:15;40.73;;;18.50;;
12267;SDS011;6196;48.398;11.736;2023-02-15T01:13:49;31.67;;;18.73;;
12267;SDS011;6196;48.398;11.736;2023-02-15T01:16:21;75.37;;;19.43;;
12267;SDS011;6196;48.398;11.736;2023-02-15T01:18:50;32.57;;;17.77;;
12267;SDS011;6196;48.398;11.736;2023-02-15T01:21:21;71.13;;;19.30;;
12267;SDS011;6196;48.398;11.736;2023-02-15T01:23:51;73.03;;;19.67;;
12267;SDS011;6196;48.398;11.736;2023-02-15T01:26:18;115.37;;;22.23;;
12267;SDS011;6196;48.398;11.736;2023-02-15T01:28:45;91.53;;;18.40;;
12267;SDS011;6196;48.398;11.736;2023-02-15T01:31:16;85.53;;;19.40;;
12267;SDS011;6196;48.398;11.736;2023-02-15T01:33:46;84.80;;;20.97;;
12267;SDS011;6196;48.398;11.736;2023-02-15T01:36:13;103.37;;;19.93;;
12267;SDS011;6196;48.398;11.736;2023-02-15T01:38:40;48.87;;;18.17;;
12267;SDS011;6196;48.398;11.736;2023-02-15T01:41:08;39.23;;;18.13;;
12267;SDS011;6196;48.398;11.736;2023-02-15T01:43:53;30.80;;;17.67;;
12267;SDS011;6196;48.398;11.736;2023-02-15T01:46:27;36.57;;;18.37;;
12267;SDS011;6196;48.398;11.736;2023-02-15T01:49:08;28.37;;;16.67;;
12267;SDS011;6196;48.398;11.736;2023-02-15T01:51:42;38.97;;;17.47;;
12267;SDS011;6196;48.398;11.736;2023-02-15T01:54:15;29.13;;;17.00;;
12267;SDS011;6196;48.398;11.736;2023-02-15T01:56:55;24.53;;;16.43;;
12267;SDS011;6196;48.398;11.736;2023-02-15T01:59:27;23.90;;;15.93;;
12267;SDS011;6196;48.398;11.736;2023-02-15T02:01:56;26.93;;;16.13;;
12267;SDS011;6196;48.398;11.736;2023-02-15T02:07:07;30.80;;;17.13;;
12267;SDS011;6196;48.398;11.736;2023-02-15T02:09:36;56.87;;;18.57;;
12267;SDS011;6196;48.398;11.736;2023-02-15T02:12:03;46.60;;;16.60;;
12267;SDS011;6196;48.398;11.736;2023-02-15T02:14:30;40.23;;;17.97;;
12267;SDS011;6196;48.398;11.736;2023-02-15T02:16:58;43.70;;;18.57;;
12267;SDS011;6196;48.398;11.736;2023-02-15T02:23:06;37.53;;;17.83;;
12267;SDS011;6196;48.398;11.736;2023-02-15T02:34:36;131.03;;;21.33;;
12267;SDS011;6196;48.398;11.736;2023-02-15T02:37:34;97.07;;;18.50;;
12267;SDS011;6196;48.398;11.736;2023-02-15T02:40:30;70.17;;;19.53;;
12267;SDS011;6196;48.398;11.736;2023-02-15T02:43:20;101.30;;;19.63;;
12267;SDS011;6196;48.398;11.736;2023-02-15T02:46:02;90.80;;;21.13;;
12267;SDS011;6196;48.398;11.736;2023-02-15T02:48:48;70.37;;;18.67;;
12267;SDS011;6196;48.398;11.736;2023-02-15T02:51:15;88.47;;;21.23;;
12267;SDS011;6196;48.398;11.736;2023-02-15T02:53:54;87.73;;;20.50;;
12267;SDS011;6196;48.398;11.736;2023-02-15T02:56:27;70.67;;;20.10;;
12267;SDS011;6196;48.398;11.736;2023-02-15T02:59:11;69.97;;;19.17;;
12267;SDS011;6196;48.398;11.736;2023-02-15T03:01:52;51.40;;;19.30;;
12267;SDS011;6196;48.398;11.736;2023-02-15T03:04:25;66.93;;;19.77;;
12267;SDS011;6196;48.398;11.736;2023-02-15T03:07:06;45.60;;;19.27;;
12267;SDS011;6196;48.398;11.736;2023-02-15T03:09:46;51.13;;;19.67;;
12267;SDS011;6196;48.398;11.736;2023-02-15T03:12:22;68.53;;;21.47;;
12267;SDS011;6196;48.398;11.736;2023-02-15T03:14:53;40.87;;;18.33;;
12267;SDS011;6196;48.398;11.736;2023-02-15T03:17:27;34.37;;;18.20;;
12267;SDS011;6196;48.398;11.736;2023-02-15T03:20:00;56.40;;;17.90;;
12267;SDS011;6196;48.398;11.736;2023-02-15T03:22:34;97.33;;;20.13;;
12267;SDS011;6196;48.398;11.736;2023-02-15T03:25:12;62.10;;;18.90;;
12267;SDS011;6196;48.398;11.736;2023-02-15T03:27:55;24.40;;;16.83;;
12267;SDS011;6196;48.398;11.736;2023-02-15T03:30:28;39.90;;;18.33;;
12267;SDS011;6196;48.398;11.736;2023-02-15T03:32:56;47.00;;;17.80;;
12267;SDS011;6196;48.398;11.736;2023-02-15T03:35:26;27.77;;;17.13;;
12267;SDS011;6196;48.398;11.736;2023-02-15T03:38:06;48.77;;;18.60;;
12267;SDS011;6196;48.398;11.736;2023-02-15T03:40:37;77.20;;;19.67;;
12267;SDS011;6196;48.398;11.736;2023-02-15T03:46:27;32.17;;;17.63;;
12267;SDS011;6196;48.398;11.736;2023-02-15T03:49:10;70.40;;;18.47;;
12267;SDS011;6196;48.398;11.736;2023-02-15T03:51:43;31.40;;;15.93;;
12267;SDS011;6196;48.398;11.736;2023-02-15T03:54:16;45.63;;;17.73;;
12267;SDS011;6196;48.398;11.736;2023-02-15T03:57:11;51.13;;;18.30;;
12267;SDS011;6196;48.398;11.736;2023-02-15T04:00:20;62.77;;;17.23;;
12267;SDS011;6196;48.398;11.736;2023-02-15T04:05:52;56.43;;;18.13;;
12267;SDS011;6196;48.398;11.736;2023-02-15T04:08:19;37.87;;;16.90;;
12267;SDS011;6196;48.398;11.736;2023-02-15T04:10:46;33.10;;;17.53;;
12267;SDS011;6196;48.398;11.736;2023-02-15T04:13:19;79.73;;;19.13;;
12267;SDS011;6196;48.398;11.736;2023-02-15T04:15:48;127.03;;;20.40;;
12267;SDS011;6196;48.398;11.736;2023-02-15T04:21:25;214.13;;;24.27;;
12267;SDS011;6196;48.398;11.736;2023-02-15T04:24:12;29.60;;;15.07;;
12267;SDS011;6196;48.398;11.736;2023-02-15T04:26:59;65.07;;;17.90;;
12267;SDS011;6196;48.398;11.736;2023-02-15T04:29:26;27.50;;;15.87;;
12267;SDS011;6196;48.398;11.736;2023-02-15T04:31:55;45.93;;;17.30;;
12267;SDS011;6196;48.398;11.736;2023-02-15T04:34:24;50.57;;;17.60;;
12267;SDS011;6196;48.398;11.736;2023-02-15T04:36:51;27.83;;;16.17;;
12267;SDS011;6196;48.398;11.736;2023-02-15T04:39:18;23.50;;;15.77;;
12267;SDS011;6196;48.398;11.736;2023-02-15T04:41:45;27.87;;;16.47;;
12267;SDS011;6196;48.398;11.736;2023-02-15T04:44:13;25.40;;;15.73;;
12267;SDS011;6196;48.398;11.736;2023-02-15T04:46:40;23.03;;;15.10;;
12267;SDS011;6196;48.398;11.736;2023-02-15T04:49:07;39.30;;;16.20;;
12267;SDS011;6196;48.398;11.736;2023-02-15T04:51:35;90.60;;;19.17;;
12267;SDS011;6196;48.398;11.736;2023-02-15T04:54:02;26.63;;;14.77;;
12267;SDS011;6196;48.398;11.736;2023-02-15T04:56:29;52.43;;;16.37;;
12267;SDS011;6196;48.398;11.736;2023-02-15T04:58:57;73.20;;;18.93;;
12267;SDS011;6196;48.398;11.736;2023-02-15T05:01:24;63.97;;;17.83;;
12267;SDS011;6196;48.398;11.736;2023-02-15T05:03:51;51.40;;;17.50;;
12267;SDS011;6196;48.398;11.736;2023-02-15T05:06:18;40.50;;;17.77;;
12267;SDS011;6196;48.398;11.736;2023-02-15T05:08:45;53.70;;;17.80;;
12267;SDS011;6196;48.398;11.736;2023-02-15T05:11:11;74.40;;;18.07;;
12267;SDS011;6196;48.398;11.736;2023-02-15T05:13:38;39.07;;;16.83;;
12267;SDS011;6196;48.398;11.736;2023-02-15T05:16:05;60.03;;;17.83;;
12267;SDS011;6196;48.398;11.736;2023-02-15T05:18:32;85.07;;;19.17;;
12267;SDS011;6196;48.398;11.736;2023-02-15T05:20:59;117.23;;;21.87;;
12267;SDS011;6196;48.398;11.736;2023-02-15T05:23:26;30.70;;;16.53;;
12267;SDS011;6196;48.398;11.736;2023-02-15T05:25:53;65.67;;;18.23;;
12267;SDS011;6196;48.398;11.736;2023-02-15T05:28:38;56.50;;;18.17;;
12267;SDS011;6196;48.398;11.736;2023-02-15T05:31:13;66.53;;;17.83;;
12267;SDS011;6196;48.398;11.736;2023-02-15T05:33:45;107.50;;;19.90;;
12267;SDS011;6196;48.398;11.736;2023-02-15T05:36:12;120.53;;;22.17;;
12267;SDS011;6196;48.398;11.736;2023-02-15T05:38:39;27.63;;;15.57;;
12267;SDS011;6196;48.398;11.736;2023-02-15T05:41:06;54.37;;;16.23;;
12267;SDS011;6196;48.398;11.736;2023-02-15T05:43:34;61.87;;;17.53;;
12267;SDS011;6196;48.398;11.736;2023-02-15T05:46:03;33.27;;;16.80;;
12267;SDS011;6196;48.398;11.736;2023-02-15T05:48:31;33.90;;;16.60;;
12267;SDS011;6196;48.398;11.736;2023-02-15T05:51:04;133.13;;;20.93;;
12267;SDS011;6196;48.398;11.736;2023-02-15T05:53:34;28.10;;;15.77;;
12267;SDS011;6196;48.398;11.736;2023-02-15T05:56:03;105.57;;;20.47;;
12267;SDS011;6196;48.398;11.736;2023-02-15T05:58:37;116.77;;;19.60;;
12267;SDS011;6196;48.398;11.736;2023-02-15T06:01:07;21.77;;;14.47;;
12267;SDS011;6196;48.398;11.736;2023-02-15T06:03:43;119.33;;;20.17;;
12267;SDS011;6196;48.398;11.736;2023-02-15T06:06:12;49.27;;;17.23;;
12267;SDS011;6196;48.398;11.736;2023-02-15T06:08:39;60.50;;;18.73;;
12267;SDS011;6196;48.398;11.736;2023-02-15T06:11:06;89.67;;;18.67;;
12267;SDS011;6196;48.398;11.736;2023-02-15T06:13:34;66.00;;;18.17;;
12267;SDS011;6196;48.398;11.736;2023-02-15T06:16:04;52.50;;;17.43;;
12267;SDS011;6196;48.398;11.736;2023-02-15T06:18:32;74.90;;;17.90;;
12267;SDS011;6196;48.398;11.736;2023-02-15T06:21:00;117.10;;;20.57;;
12267;SDS011;6196;48.398;11.736;2023-02-15T06:23:27;63.80;;;19.20;;
12267;SDS011;6196;48.398;11.736;2023-02-15T06:25:54;56.73;;;17.40;;
12267;SDS011;6196;48.398;11.736;2023-02-15T06:28:21;101.17;;;21.10;;
12267;SDS011;6196;48.398;11.736;2023-02-15T06:30:48;76.27;;;19.30;;
12267;SDS011;6196;48.398;11.736;2023-02-15T06:33:15;42.87;;;16.30;;
12267;SDS011;6196;48.398;11.736;2023-02-15T06:35:42;101.23;;;20.07;;
12267;SDS011;6196;48.398;11.736;2023-02-15T06:38:09;145.37;;;20.40;;
12267;SDS011;6196;48.398;11.736;2023-02-15T06:40:36;36.17;;;16.00;;
12267;SDS011;6196;48.398;11.736;2023-02-15T06:43:02;47.50;;;16.73;;
12267;SDS011;6196;48.398;11.736;2023-02-15T06:45:30;103.23;;;19.40;;
12267;SDS011;6196;48.398;11.736;2023-02-15T06:47:57;60.40;;;18.07;;
12267;SDS011;6196;48.398;11.736;2023-02-15T06:50:23;113.47;;;19.57;;
12267;SDS011;6196;48.398;11.736;2023-02-15T06:52:55;29.93;;;15.47;;
12267;SDS011;6196;48.398;11.736;2023-02-15T06:55:23;55.87;;;20.13;;
12267;SDS011;6196;48.398;11.736;2023-02-15T06:57:50;49.10;;;15.67;;
12267;SDS011;6196;48.398;11.736;2023-02-15T07:00:17;106.00;;;19.00;;
12267;SDS011;6196;48.398;11.736;2023-02-15T07:02:44;57.57;;;18.50;;
12267;SDS011;6196;48.398;11.736;2023-02-15T07:05:11;56.23;;;19.27;;
12267;SDS011;6196;48.398;11.736;2023-02-15T07:07:38;57.83;;;18.67;;
12267;SDS011;6196;48.398;11.736;2023-02-15T07:10:05;77.47;;;18.40;;
12267;SDS011;6196;48.398;11.736;2023-02-15T07:12:32;90.80;;;19.23;;
12267;SDS011;6196;48.398;11.736;2023-02-15T07:15:09;87.47;;;18.23;;
12267;SDS011;6196;48.398;11.736;2023-02-15T07:17:39;39.07;;;17.37;;
12267;SDS011;6196;48.398;11.736;2023-02-15T07:20:17;52.13;;;17.83;;
12267;SDS011;6196;48.398;11.736;2023-02-15T07:22:49;62.70;;;17.57;;
12267;SDS011;6196;48.398;11.736;2023-02-15T07:25:16;28.60;;;15.80;;
12267;SDS011;6196;48.398;11.736;2023-02-15T07:27:44;66.73;;;17.33;;
12267;SDS011;6196;48.398;11.736;2023-02-15T07:30:12;42.83;;;15.97;;
12267;SDS011;6196;48.398;11.736;2023-02-15T07:32:42;39.90;;;16.53;;
12267;SDS011;6196;48.398;11.736;2023-02-15T07:35:31;48.87;;;17.47;;
12267;SDS011;6196;48.398;11.736;2023-02-15T07:37:59;46.17;;;17.20;;
12267;SDS011;6196;48.398;11.736;2023-02-15T07:40:26;48.20;;;17.43;;
12267;SDS011;6196;48.398;11.736;2023-02-15T07:42:53;55.93;;;17.70;;
12267;SDS011;6196;48.398;11.736;2023-02-15T07:45:21;57.33;;;19.83;;
12267;SDS011;6196;48.398;11.736;2023-02-15T07:47:48;47.90;;;17.27;;
12267;SDS011;6196;48.398;11.736;2023-02-15T07:50:15;65.40;;;19.33;;
12267;SDS011;6196;48.398;11.736;2023-02-15T07:52:42;49.73;;;18.17;;
12267;SDS011;6196;48.398;11.736;2023-02-15T07:55:09;54.47;;;17.63;;
12267;SDS011;6196;48.398;11.736;2023-02-15T07:57:45;48.13;;;17.00;;
12267;SDS011;6196;48.398;11.736;2023-02-15T08:00:15;29.23;;;15.17;;
12267;SDS011;6196;48.398;11.736;2023-02-15T08:02:47;58.33;;;16.50;;
12267;SDS011;6196;48.398;11.736;2023-02-15T08:05:36;33.70;;;15.90;;
12267;SDS011;6196;48.398;11.736;2023-02-15T08:08:03;53.37;;;16.70;;
12267;SDS011;6196;48.398;11.736;2023-02-15T08:10:30;27.87;;;15.10;;
12267;SDS011;6196;48.398;11.736;2023-02-15T08:13:16;58.20;;;16.40;;
12267;SDS011;6196;48.398;11.736;2023-02-15T08:15:49;58.53;;;17.70;;
12267;SDS011;6196;48.398;11.736;2023-02-15T08:18:16;37.53;;;17.23;;
12267;SDS011;6196;48.398;11.736;2023-02-15T08:20:48;27.80;;;16.20;;
12267;SDS011;6196;48.398;11.736;2023-02-15T08:23:16;30.30;;;15.00;;
12267;SDS011;6196;48.398;11.736;2023-02-15T08:25:43;36.80;;;20.53;;
12267;SDS011;6196;48.398;11.736;2023-02-15T08:28:09;62.13;;;26.83;;
12267;SDS011;6196;48.398;11.736;2023-02-15T08:30:37;40.83;;;24.93;;
12267;SDS011;6196;48.398;11.736;2023-02-15T08:33:04;45.93;;;25.40;;
12267;SDS011;6196;48.398;11.736;2023-02-15T08:35:30;41.87;;;19.13;;
12267;SDS011;6196;48.398;11.736;2023-02-15T08:37:57;37.50;;;20.23;;
12267;SDS011;6196;48.398;11.736;2023-02-15T08:40:24;37.73;;;17.13;;
12267;SDS011;6196;48.398;11.736;2023-02-15T08:42:51;50.83;;;18.70;;
12267;SDS011;6196;48.398;11.736;2023-02-15T08:45:18;35.77;;;16.33;;
12267;SDS011;6196;48.398;11.736;2023-02-15T08:47:45;45.83;;;16.80;;
12267;SDS011;6196;48.398;11.736;2023-02-15T08:50:11;38.73;;;17.73;;
12267;SDS011;6196;48.398;11.736;2023-02-15T08:52:38;119.17;;;48.40;;
12267;SDS011;6196;48.398;11.736;2023-02-15T08:55:05;69.20;;;31.03;;
12267;SDS011;6196;48.398;11.736;2023-02-15T08:57:32;106.37;;;21.77;;
12267;SDS011;6196;48.398;11.736;2023-02-15T08:59:59;56.10;;;29.77;;
12267;SDS011;6196;48.398;11.736;2023-02-15T09:02:26;60.03;;;20.60;;
12267;SDS011;6196;48.398;11.736;2023-02-15T09:04:53;46.03;;;16.83;;
12267;SDS011;6196;48.398;11.736;2023-02-15T09:07:19;24.80;;;16.80;;
12267;SDS011;6196;48.398;11.736;2023-02-15T09:09:46;47.53;;;19.67;;
12267;SDS011;6196;48.398;11.736;2023-02-15T09:12:13;41.77;;;17.57;;
12267;SDS011;6196;48.398;11.736;2023-02-15T09:14:40;37.53;;;16.67;;
12267;SDS011;6196;48.398;11.736;2023-02-15T09:17:07;50.07;;;16.73;;
12267;SDS011;6196;48.398;11.736;2023-02-15T09:19:34;47.03;;;17.93;;
12267;SDS011;6196;48.398;11.736;2023-02-15T09:22:00;31.17;;;20.57;;
12267;SDS011;6196;48.398;11.736;2023-02-15T09:24:27;35.70;;;17.73;;
12267;SDS011;6196;48.398;11.736;2023-02-15T09:26:58;40.03;;;15.40;;
12267;SDS011;6196;48.398;11.736;2023-02-15T09:29:25;30.27;;;15.53;;
12267;SDS011;6196;48.398;11.736;2023-02-15T09:31:52;22.67;;;15.70;;
12267;SDS011;6196;48.398;11.736;2023-02-15T09:34:20;27.13;;;15.50;;
12267;SDS011;6196;48.398;11.736;2023-02-15T09:36:48;30.47;;;16.10;;
12267;SDS011;6196;48.398;11.736;2023-02-15T09:39:21;38.27;;;19.27;;
12267;SDS011;6196;48.398;11.736;2023-02-15T09:42:04;24.77;;;14.90;;
12267;SDS011;6196;48.398;11.736;2023-02-15T09:50:54;26.83;;;15.67;;
12267;SDS011;6196;48.398;11.736;2023-02-15T09:56:55;45.50;;;17.17;;
12267;SDS011;6196;48.398;11.736;2023-02-15T09:59:32;29.60;;;18.03;;
12267;SDS011;6196;48.398;11.736;2023-02-15T10:28:03;25.70;;;16.17;;
12267;SDS011;6196;48.398;11.736;2023-02-15T10:30:42;24.63;;;16.00;;
12267;SDS011;6196;48.398;11.736;2023-02-15T10:36:18;25.13;;;16.50;;
12267;SDS011;6196;48.398;11.736;2023-02-15T10:42:01;21.17;;;15.50;;
12267;SDS011;6196;48.398;11.736;2023-02-15T10:45:06;35.63;;;18.30;;
12267;SDS011;6196;48.398;11.736;2023-02-15T10:50:26;26.83;;;16.10;;
12267;SDS011;6196;48.398;11.736;2023-02-15T11:06:34;29.13;;;18.63;;
12267;SDS011;6196;48.398;11.736;2023-02-15T11:09:10;28.13;;;18.03;;
12267;SDS011;6196;48.398;11.736;2023-02-15T11:11:41;29.43;;;18.13;;
12267;SDS011;6196;48.398;11.736;2023-02-15T11:14:27;22.67;;;17.30;;
12267;SDS011;6196;48.398;11.736;2023-02-15T11:17:15;44.13;;;18.17;;
12267;SDS011;6196;48.398;11.736;2023-02-15T11:19:54;22.93;;;15.83;;
12267;SDS011;6196;48.398;11.736;2023-02-15T11:22:51;20.17;;;15.70;;
12267;SDS011;6196;48.398;11.736;2023-02-15T11:25:22;29.13;;;17.00;;
12267;SDS011;6196;48.398;11.736;2023-02-15T11:27:54;25.03;;;17.37;;
12267;SDS011;6196;48.398;11.736;2023-02-15T11:30:23;25.33;;;17.27;;
12267;SDS011;6196;48.398;11.736;2023-02-15T11:32:55;22.40;;;16.77;;
12267;SDS011;6196;48.398;11.736;2023-02-15T11:35:59;27.23;;;17.43;;
12267;SDS011;6196;48.398;11.736;2023-02-15T11:38:28;25.20;;;18.07;;
12267;SDS011;6196;48.398;11.736;2023-02-15T11:46:20;25.33;;;19.20;;
12267;SDS011;6196;48.398;11.736;2023-02-15T11:48:48;30.30;;;18.23;;
12267;SDS011;6196;48.398;11.736;2023-02-15T11:51:16;26.67;;;19.37;;
12267;SDS011;6196;48.398;11.736;2023-02-15T11:53:49;25.83;;;18.50;;
12267;SDS011;6196;48.398;11.736;2023-02-15T11:56:17;26.53;;;18.83;;
12267;SDS011;6196;48.398;11.736;2023-02-15T11:59:00;25.13;;;19.27;;
12267;SDS011;6196;48.398;11.736;2023-02-15T12:01:39;37.60;;;19.67;;
12267;SDS011;6196;48.398;11.736;2023-02-15T12:04:16;27.07;;;18.53;;
12267;SDS011;6196;48.398;11.736;2023-02-15T12:06:55;31.20;;;21.47;;
12267;SDS011;6196;48.398;11.736;2023-02-15T12:09:53;32.77;;;22.60;;
12267;SDS011;6196;48.398;11.736;2023-02-15T12:12:42;34.67;;;23.93;;
12267;SDS011;6196;48.398;11.736;2023-02-15T12:15:10;42.43;;;26.37;;
12267;SDS011;6196;48.398;11.736;2023-02-15T12:17:39;35.63;;;24.63;;
12267;SDS011;6196;48.398;11.736;2023-02-15T12:22:46;29.50;;;21.83;;
12267;SDS011;6196;48.398;11.736;2023-02-15T12:25:27;28.77;;;21.40;;
12267;SDS011;6196;48.398;11.736;2023-02-15T12:28:16;28.90;;;21.50;;
12267;SDS011;6196;48.398;11.736;2023-02-15T12:31:19;32.43;;;23.70;;
12267;SDS011;6196;48.398;11.736;2023-02-15T12:33:52;42.50;;;26.87;;
12267;SDS011;6196;48.398;11.736;2023-02-15T12:36:29;38.40;;;26.13;;
12267;SDS011;6196;48.398;11.736;2023-02-15T12:41:38;37.40;;;26.10;;
12267;SDS011;6196;48.398;11.736;2023-02-15T12:47:03;37.27;;;26.00;;
12267;SDS011;6196;48.398;11.736;2023-02-15T12:49:42;39.00;;;26.97;;
12267;SDS011;6196;48.398;11.736;2023-02-15T12:54:44;38.00;;;27.77;;
12267;SDS011;6196;48.398;11.736;2023-02-15T12:57:24;34.00;;;25.47;;
12267;SDS011;6196;48.398;11.736;2023-02-15T12:59:59;39.87;;;28.30;;
12267;SDS011;6196;48.398;11.736;2023-02-15T13:08:20;38.43;;;26.47;;
12267;SDS011;6196;48.398;11.736;2023-02-15T13:13:53;36.87;;;25.73;;
12267;SDS011;6196;48.398;11.736;2023-02-15T13:16:38;40.27;;;27.67;;
12267;SDS011;6196;48.398;11.736;2023-02-15T13:19:10;37.50;;;26.73;;
12267;SDS011;6196;48.398;11.736;2023-02-15T13:21:47;38.43;;;27.13;;
12267;SDS011;6196;48.398;11.736;2023-02-15T13:24:23;39.60;;;27.40;;
12267;SDS011;6196;48.398;11.736;2023-02-15T13:26:54;38.20;;;25.03;;
12267;SDS011;6196;48.398;11.736;2023-02-15T13:29:41;34.43;;;25.73;;
12267;SDS011;6196;48.398;11.736;2023-02-15T13:32:28;34.43;;;26.03;;
12267;SDS011;6196;48.398;11.736;2023-02-15T13:35:03;35.50;;;25.53;;
12267;SDS011;6196;48.398;11.736;2023-02-15T13:37:45;36.30;;;26.20;;
12267;SDS011;6196;48.398;11.736;2023-02-15T13:43:02;38.53;;;26.37;;
12267;SDS011;6196;48.398;11.736;2023-02-15T13:45:52;35.00;;;24.07;;
12267;SDS011;6196;48.398;11.736;2023-02-15T13:48:41;36.23;;;24.53;;
12267;SDS011;6196;48.398;11.736;2023-02-15T13:58:14;32.67;;;23.20;;
12267;SDS011;6196;48.398;11.736;2023-02-15T14:22:32;29.70;;;20.83;;
12267;SDS011;6196;48.398;11.736;2023-02-15T14:30:39;30.53;;;22.90;;
12267;SDS011;6196;48.398;11.736;2023-02-15T14:35:40;31.10;;;21.83;;
12267;SDS011;6196;48.398;11.736;2023-02-15T14:40:51;31.10;;;22.60;;
12267;SDS011;6196;48.398;11.736;2023-02-15T14:46:38;31.20;;;22.00;;
12267;SDS011;6196;48.398;11.736;2023-02-15T14:49:41;30.23;;;22.27;;
12267;SDS011;6196;48.398;11.736;2023-02-15T14:52:09;33.20;;;24.00;;
12267;SDS011;6196;48.398;11.736;2023-02-15T15:02:40;32.63;;;23.20;;
12267;SDS011;6196;48.398;11.736;2023-02-15T15:05:18;30.10;;;22.13;;
12267;SDS011;6196;48.398;11.736;2023-02-15T15:07:52;31.47;;;23.20;;
12267;SDS011;6196;48.398;11.736;2023-02-15T15:12:50;31.73;;;22.73;;
12267;SDS011;6196;48.398;11.736;2023-02-15T15:17:55;32.20;;;23.13;;
12267;SDS011;6196;48.398;11.736;2023-02-15T15:20:40;30.60;;;22.90;;
12267;SDS011;6196;48.398;11.736;2023-02-15T15:42:12;29.57;;;20.30;;
12267;SDS011;6196;48.398;11.736;2023-02-15T15:50:34;25.70;;;19.13;;
12267;SDS011;6196;48.398;11.736;2023-02-15T15:53:06;24.33;;;19.60;;
12267;SDS011;6196;48.398;11.736;2023-02-15T15:55:46;28.13;;;19.73;;
12267;SDS011;6196;48.398;11.736;2023-02-15T15:58:16;28.60;;;20.67;;
12267;SDS011;6196;48.398;11.736;2023-02-15T16:00:49;27.67;;;19.80;;
12267;SDS011;6196;48.398;11.736;2023-02-15T16:03:30;27.57;;;18.87;;
12267;SDS011;6196;48.398;11.736;2023-02-15T16:05:57;29.37;;;20.37;;
12267;SDS011;6196;48.398;11.736;2023-02-15T16:11:10;29.93;;;20.77;;
12267;SDS011;6196;48.398;11.736;2023-02-15T16:13:45;32.33;;;21.27;;
12267;SDS011;6196;48.398;11.736;2023-02-15T16:16:13;35.03;;;22.13;;
12267;SDS011;6196;48.398;11.736;2023-02-15T16:18:49;38.13;;;21.43;;
12267;SDS011;6196;48.398;11.736;2023-02-15T16:21:18;36.67;;;22.13;;
12267;SDS011;6196;48.398;11.736;2023-02-15T16:26:55;32.60;;;21.27;;
12267;SDS011;6196;48.398;11.736;2023-02-15T16:29:35;34.47;;;23.17;;
12267;SDS011;6196;48.398;11.736;2023-02-15T16:32:04;32.00;;;21.57;;
12267;SDS011;6196;48.398;11.736;2023-02-15T16:35:02;43.10;;;23.00;;
12267;SDS011;6196;48.398;11.736;2023-02-15T16:37:33;38.20;;;23.20;;
12267;SDS011;6196;48.398;11.736;2023-02-15T16:40:00;39.77;;;25.30;;
12267;SDS011;6196;48.398;11.736;2023-02-15T16:42:28;63.63;;;27.97;;
12267;SDS011;6196;48.398;11.736;2023-02-15T16:45:01;50.90;;;29.07;;
12267;SDS011;6196;48.398;11.736;2023-02-15T16:47:35;49.23;;;28.60;;
12267;SDS011;6196;48.398;11.736;2023-02-15T16:50:07;64.63;;;29.17;;
12267;SDS011;6196;48.398;11.736;2023-02-15T16:52:51;64.70;;;29.70;;
12267;SDS011;6196;48.398;11.736;2023-02-15T16:55:22;47.47;;;29.60;;
12267;SDS011;6196;48.398;11.736;2023-02-15T16:57:55;46.20;;;27.40;;
12267;SDS011;6196;48.398;11.736;2023-02-15T17:00:27;59.13;;;28.50;;
12267;SDS011;6196;48.398;11.736;2023-02-15T17:02:58;90.20;;;32.07;;
12267;SDS011;6196;48.398;11.736;2023-02-15T17:05:51;45.03;;;28.83;;
12267;SDS011;6196;48.398;11.736;2023-02-15T17:13:39;52.43;;;29.00;;
12267;SDS011;6196;48.398;11.736;2023-02-15T17:16:35;51.23;;;29.40;;
12267;SDS011;6196;48.398;11.736;2023-02-15T17:19:18;52.80;;;30.43;;
12267;SDS011;6196;48.398;11.736;2023-02-15T17:21:53;47.47;;;27.90;;
12267;SDS011;6196;48.398;11.736;2023-02-15T17:24:37;49.03;;;29.53;;
12267;SDS011;6196;48.398;11.736;2023-02-15T17:27:27;55.00;;;32.47;;
12267;SDS011;6196;48.398;11.736;2023-02-15T17:30:00;194.80;;;37.57;;
12267;SDS011;6196;48.398;11.736;2023-02-15T17:32:38;94.67;;;34.30;;
12267;SDS011;6196;48.398;11.736;2023-02-15T17:35:30;59.87;;;31.00;;
12267;SDS011;6196;48.398;11.736;2023-02-15T17:38:03;50.13;;;28.23;;
12267;SDS011;6196;48.398;11.736;2023-02-15T17:40:43;71.97;;;29.87;;
12267;SDS011;6196;48.398;11.736;2023-02-15T17:43:10;50.60;;;30.40;;
12267;SDS011;6196;48.398;11.736;2023-02-15T17:45:44;89.50;;;32.97;;
12267;SDS011;6196;48.398;11.736;2023-02-15T17:48:20;151.93;;;34.90;;
12267;SDS011;6196;48.398;11.736;2023-02-15T17:50:57;72.90;;;31.23;;
12267;SDS011;6196;48.398;11.736;2023-02-15T17:53:28;67.33;;;29.57;;
12267;SDS011;6196;48.398;11.736;2023-02-15T17:55:56;54.70;;;29.73;;
12267;SDS011;6196;48.398;11.736;2023-02-15T17:58:23;50.20;;;29.17;;
12267;SDS011;6196;48.398;11.736;2023-02-15T18:00:51;62.57;;;29.73;;
12267;SDS011;6196;48.398;11.736;2023-02-15T18:03:44;80.30;;;28.37;;
12267;SDS011;6196;48.398;11.736;2023-02-15T18:06:33;129.03;;;32.87;;
12267;SDS011;6196;48.398;11.736;2023-02-15T18:09:22;49.07;;;27.67;;
12267;SDS011;6196;48.398;11.736;2023-02-15T18:14:46;123.03;;;31.23;;
12267;SDS011;6196;48.398;11.736;2023-02-15T18:17:13;54.13;;;28.73;;